createdAt,value
2023-02-07T00:01:20.981Z,-4.91
2023-02-07T00:03:48.912Z,-4.81
2023-02-07T00:06:30.601Z,-4.82
2023-02-07T00:09:03.502Z,-4.82
2023-02-07T00:11:31.090Z,-4.83
2023-02-07T00:13:59.312Z,-4.83
2023-02-07T00:16:26.795Z,-4.80
2023-02-07T00:18:55.081Z,-4.81
2023-02-07T00:21:23.887Z,-4.79
2023-02-07T00:23:52.618Z,-4.76
2023-02-07T00:26:22.121Z,-4.79
2023-02-07T00:28:51.750Z,-4.75
2023-02-07T00:31:33.122Z,-4.74
2023-02-07T00:34:03.325Z,-4.78
2023-02-07T00:36:32.566Z,-4.77
2023-02-07T00:39:02.674Z,-4.76
2023-02-07T00:41:30.760Z,-4.75
2023-02-07T00:43:58.494Z,-4.76
2023-02-07T00:46:26.335Z,-4.69
2023-02-07T00:48:55.091Z,-4.73
2023-02-07T00:51:25.835Z,-4.71
2023-02-07T00:53:56.860Z,-4.73
2023-02-07T00:56:26.445Z,-4.69
2023-02-07T00:58:54.305Z,-4.68
2023-02-07T01:01:22.591Z,-4.64
2023-02-07T01:03:50.929Z,-4.60
2023-02-07T01:06:19.402Z,-4.59
2023-02-07T01:08:48.030Z,-4.59
2023-02-07T01:11:18.191Z,-4.57
2023-02-07T01:13:45.732Z,-4.57
2023-02-07T01:16:33.233Z,-4.52
2023-02-07T01:19:06.898Z,-4.49
2023-02-07T01:21:34.740Z,-4.51
2023-02-07T01:24:04.496Z,-4.52
2023-02-07T01:26:31.880Z,-4.47
2023-02-07T01:28:59.538Z,-4.51
2023-02-07T01:31:27.041Z,-4.48
2023-02-07T01:33:57.010Z,-4.46
2023-02-07T01:36:27.051Z,-4.46
2023-02-07T01:38:55.318Z,-4.41
2023-02-07T01:41:24.264Z,-4.38
2023-02-07T01:44:28.727Z,-4.36
2023-02-07T01:46:57.142Z,-4.27
2023-02-07T01:49:28.481Z,-4.36
2023-02-07T01:52:17.232Z,-4.23
2023-02-07T01:54:46.137Z,-4.17
2023-02-07T01:57:16.391Z,-4.13
2023-02-07T01:59:44.568Z,-4.04
2023-02-07T02:02:16.581Z,-4.01
2023-02-07T02:04:46.947Z,-3.97
2023-02-07T02:07:14.499Z,-3.93
2023-02-07T02:09:42.064Z,-3.90
2023-02-07T02:12:33.621Z,-3.89
2023-02-07T02:15:04.296Z,-3.90
2023-02-07T02:18:02.802Z,-3.88
2023-02-07T02:20:34.743Z,-3.90
2023-02-07T02:23:20.686Z,-3.87
2023-02-07T02:25:57.804Z,-3.95
2023-02-07T02:28:55.920Z,-3.92
2023-02-07T02:31:29.291Z,-3.91
2023-02-07T02:34:35.423Z,-3.96
2023-02-07T02:37:07.186Z,-3.98
2023-02-07T02:39:42.025Z,-3.91
2023-02-07T02:42:31.416Z,-3.92
2023-02-07T02:45:05.538Z,-3.90
2023-02-07T02:47:33.817Z,-3.85
2023-02-07T02:50:03.064Z,-3.78
2023-02-07T02:52:48.515Z,-3.75
2023-02-07T02:55:46.593Z,-3.68
2023-02-07T02:58:15.000Z,-3.65
2023-02-07T03:01:20.644Z,-3.63
2023-02-07T03:04:25.311Z,-3.61
2023-02-07T03:07:28.950Z,-3.56
2023-02-07T03:10:01.590Z,-3.53
2023-02-07T03:12:45.162Z,-3.56
2023-02-07T03:15:18.092Z,-3.49
2023-02-07T03:17:57.673Z,-3.45
2023-02-07T03:20:32.029Z,-3.41
2023-02-07T03:23:00.692Z,-3.38
2023-02-07T03:25:29.375Z,-3.42
2023-02-07T03:27:58.322Z,-3.34
2023-02-07T03:30:29.338Z,-3.36
2023-02-07T03:32:58.963Z,-3.33
2023-02-07T03:35:31.064Z,-3.32
2023-02-07T03:37:59.935Z,-3.29
2023-02-07T03:40:30.289Z,-3.28
2023-02-07T03:43:03.325Z,-3.28
2023-02-07T03:45:31.664Z,-3.32
2023-02-07T03:47:58.943Z,-3.28
2023-02-07T03:50:26.466Z,-3.24
2023-02-07T03:52:53.628Z,-3.22
2023-02-07T03:55:21.269Z,-3.20
2023-02-07T03:57:48.516Z,-3.21
2023-02-07T04:00:16.509Z,-3.17
2023-02-07T04:02:43.835Z,-3.17
2023-02-07T04:05:11.570Z,-3.16
2023-02-07T04:07:38.990Z,-3.16
2023-02-07T04:10:07.207Z,-3.18
2023-02-07T04:12:34.715Z,-3.14
2023-02-07T04:15:03.635Z,-3.12
2023-02-07T04:17:31.469Z,-3.08
2023-02-07T04:20:01.824Z,-3.07
2023-02-07T04:22:29.603Z,-3.09
2023-02-07T04:24:57.268Z,-3.05
2023-02-07T04:27:24.803Z,-3.01
2023-02-07T04:29:52.574Z,-2.99
2023-02-07T04:32:19.845Z,-2.99
2023-02-07T04:34:47.575Z,-2.96
2023-02-07T04:37:14.735Z,-2.93
2023-02-07T04:39:43.392Z,-2.92
2023-02-07T04:42:10.534Z,-2.90
2023-02-07T04:44:38.050Z,-2.89
2023-02-07T04:47:05.464Z,-2.87
2023-02-07T04:49:34.424Z,-2.86
2023-02-07T04:52:02.352Z,-2.83
2023-02-07T04:54:29.950Z,-2.83
2023-02-07T04:56:57.367Z,-2.81
2023-02-07T04:59:24.901Z,-2.82
2023-02-07T05:01:52.494Z,-2.74
2023-02-07T05:04:21.016Z,-2.71
2023-02-07T05:06:48.460Z,-2.72
2023-02-07T05:09:16.498Z,-2.76
2023-02-07T05:11:43.747Z,-2.71
2023-02-07T05:14:11.590Z,-2.72
2023-02-07T05:16:39.057Z,-2.75
2023-02-07T05:19:06.692Z,-2.73
2023-02-07T05:21:33.997Z,-2.72
2023-02-07T05:24:01.772Z,-2.73
2023-02-07T05:26:29.022Z,-2.74
2023-02-07T05:28:56.477Z,-2.71
2023-02-07T05:31:43.805Z,-2.68
2023-02-07T05:34:11.481Z,-2.67
2023-02-07T05:36:38.890Z,-2.65
2023-02-07T05:39:06.600Z,-2.68
2023-02-07T05:41:33.819Z,-2.62
2023-02-07T05:44:02.218Z,-2.59
2023-02-07T05:46:29.522Z,-2.63
2023-02-07T05:48:57.303Z,-2.62
2023-02-07T05:51:24.761Z,-2.56
2023-02-07T05:53:52.388Z,-2.56
2023-02-07T05:56:19.565Z,-2.48
2023-02-07T05:58:47.248Z,-2.42
2023-02-07T06:01:14.569Z,-2.40
2023-02-07T06:03:42.249Z,-2.39
2023-02-07T06:06:09.643Z,-2.31
2023-02-07T06:08:37.389Z,-2.34
2023-02-07T06:11:04.937Z,-2.34
2023-02-07T06:13:32.504Z,-2.26
2023-02-07T06:15:59.728Z,-2.29
2023-02-07T06:18:27.318Z,-2.29
2023-02-07T06:20:54.574Z,-2.25
2023-02-07T06:23:23.093Z,-2.24
2023-02-07T06:25:50.444Z,-2.24
2023-02-07T06:28:18.219Z,-2.17
2023-02-07T06:30:45.955Z,-2.20
2023-02-07T06:33:13.508Z,-2.14
2023-02-07T06:35:47.221Z,-2.22
2023-02-07T06:38:15.740Z,-2.22
2023-02-07T06:40:43.541Z,-2.07
2023-02-07T06:43:11.713Z,-2.05
2023-02-07T06:45:39.181Z,-2.02
2023-02-07T06:48:07.856Z,-1.98
2023-02-07T06:50:35.300Z,-1.97
2023-02-07T06:53:03.439Z,-1.96
2023-02-07T06:55:37.878Z,-1.97
2023-02-07T06:58:06.884Z,-1.97
2023-02-07T07:00:34.225Z,-1.92
2023-02-07T07:03:02.976Z,-1.87
2023-02-07T07:05:31.214Z,-1.84
2023-02-07T07:07:59.224Z,-1.85
2023-02-07T07:10:26.571Z,-1.86
2023-02-07T07:12:54.198Z,-1.76
2023-02-07T07:15:21.473Z,-1.78
2023-02-07T07:17:49.095Z,-1.71
2023-02-07T07:20:16.459Z,-1.70
2023-02-07T07:22:44.132Z,-1.72
2023-02-07T07:25:11.364Z,-1.69
2023-02-07T07:27:38.953Z,-1.71
2023-02-07T07:30:10.222Z,-1.68
2023-02-07T07:32:38.292Z,-1.68
2023-02-07T07:35:06.036Z,-1.67
2023-02-07T07:37:34.070Z,-1.64
2023-02-07T07:40:01.441Z,-1.58
2023-02-07T07:42:29.149Z,-1.56
2023-02-07T07:45:14.574Z,-1.58
2023-02-07T07:47:42.413Z,-1.59
2023-02-07T07:50:09.758Z,-1.53
2023-02-07T07:52:37.393Z,-1.43
2023-02-07T07:55:04.913Z,-1.40
2023-02-07T07:57:32.798Z,-1.36
2023-02-07T08:00:00.185Z,-1.37
2023-02-07T08:02:28.344Z,-1.32
2023-02-07T08:04:55.723Z,-1.31
2023-02-07T08:07:23.300Z,-1.29
2023-02-07T08:09:50.611Z,-1.31
2023-02-07T08:12:18.139Z,-1.39
2023-02-07T08:14:45.812Z,-1.30
2023-02-07T08:17:13.373Z,-1.32
2023-02-07T08:19:40.701Z,-1.33
2023-02-07T08:22:08.271Z,-1.27
2023-02-07T08:24:36.705Z,-1.22
2023-02-07T08:27:04.484Z,-1.21
2023-02-07T08:29:31.726Z,-1.22
2023-02-07T08:31:59.461Z,-1.17
2023-02-07T08:34:29.084Z,-1.20
2023-02-07T08:36:56.790Z,-1.13
2023-02-07T08:39:24.152Z,-1.12
2023-02-07T08:41:51.732Z,-1.05
2023-02-07T08:44:19.085Z,-1.04
2023-02-07T08:46:46.635Z,-1.04
2023-02-07T08:49:13.845Z,-1.01
2023-02-07T08:51:42.764Z,-1.03
2023-02-07T08:54:10.154Z,-1.05
2023-02-07T08:56:37.825Z,-1.01
2023-02-07T08:59:05.304Z,-0.90
2023-02-07T09:01:33.097Z,-0.95
2023-02-07T09:04:00.534Z,-0.95
2023-02-07T09:06:28.646Z,-0.93
2023-02-07T09:08:55.902Z,-0.86
2023-02-07T09:11:23.588Z,-0.87
2023-02-07T09:13:50.789Z,-0.85
2023-02-07T09:16:18.553Z,-0.83
2023-02-07T09:18:45.967Z,-0.79
2023-02-07T09:21:13.659Z,-0.77
2023-02-07T09:23:40.988Z,-0.77
2023-02-07T09:26:09.619Z,-0.77
2023-02-07T09:28:36.949Z,-0.75
2023-02-07T09:31:09.088Z,-0.77
2023-02-07T09:33:36.881Z,-0.85
2023-02-07T09:36:04.790Z,-0.87
2023-02-07T09:38:32.557Z,-0.85
2023-02-07T09:41:00.180Z,-0.88
2023-02-07T09:43:39.194Z,-0.83
2023-02-07T09:46:20.791Z,-0.83
2023-02-07T09:49:01.037Z,-0.74
2023-02-07T09:51:28.826Z,-0.74
2023-02-07T09:54:00.262Z,-0.68
2023-02-07T09:56:28.516Z,-0.68
2023-02-07T09:59:02.732Z,-0.70
2023-02-07T10:01:34.580Z,-0.74
2023-02-07T10:04:21.941Z,-0.73
2023-02-07T10:06:54.292Z,-0.72
2023-02-07T10:09:33.199Z,-0.73
2023-02-07T10:12:05.249Z,-0.64
2023-02-07T10:14:42.557Z,-0.65
2023-02-07T10:17:37.121Z,-0.57
2023-02-07T10:20:23.734Z,-0.51
2023-02-07T10:23:42.313Z,-0.42
2023-02-07T10:26:40.936Z,-0.40
2023-02-07T10:29:26.076Z,-0.36
2023-02-07T10:31:55.364Z,-0.35
2023-02-07T10:34:25.955Z,-0.38
2023-02-07T10:36:56.569Z,-0.33
2023-02-07T10:39:34.159Z,-0.28
2023-02-07T10:42:01.754Z,-0.26
2023-02-07T10:44:29.998Z,-0.31
2023-02-07T10:47:00.852Z,-0.30
2023-02-07T10:49:31.275Z,-0.27
2023-02-07T10:52:02.752Z,-0.26
2023-02-07T10:54:30.427Z,-0.15
2023-02-07T10:57:02.818Z,-0.08
2023-02-07T10:59:36.691Z,-0.09
2023-02-07T11:02:27.458Z,-0.11
2023-02-07T11:05:07.134Z,-0.15
2023-02-07T11:07:47.194Z,-0.20
2023-02-07T11:10:17.015Z,-0.11
2023-02-07T11:12:50.360Z,-0.02
2023-02-07T11:15:26.257Z,-0.16
2023-02-07T11:17:56.800Z,-0.15
2023-02-07T11:20:37.175Z,-0.07
2023-02-07T11:23:15.467Z,0.05
2023-02-07T11:25:45.849Z,0.17
2023-02-07T11:28:39.798Z,0.29
2023-02-07T11:31:09.075Z,0.28
2023-02-07T11:33:37.048Z,0.32
2023-02-07T11:36:23.936Z,0.31
2023-02-07T11:38:55.913Z,0.31
2023-02-07T11:41:32.498Z,0.25
2023-02-07T11:44:02.651Z,0.39
2023-02-07T11:46:38.683Z,0.43
2023-02-07T11:49:09.340Z,0.41
2023-02-07T11:51:36.856Z,0.50
2023-02-07T11:54:06.617Z,0.63
2023-02-07T11:56:34.099Z,0.61
2023-02-07T11:59:05.700Z,0.68
2023-02-07T12:01:34.232Z,0.72
2023-02-07T12:04:13.810Z,0.59
2023-02-07T12:06:51.712Z,0.55
2023-02-07T12:09:31.995Z,0.62
2023-02-07T12:12:01.732Z,0.65
2023-02-07T12:14:42.367Z,0.59
2023-02-07T12:17:16.728Z,0.62
2023-02-07T12:19:55.218Z,0.69
2023-02-07T12:22:27.270Z,0.71
2023-02-07T12:25:20.691Z,0.69
2023-02-07T12:27:50.505Z,0.70
2023-02-07T12:30:37.677Z,0.62
2023-02-07T12:33:26.692Z,0.64
2023-02-07T12:36:31.852Z,0.74
2023-02-07T12:39:22.669Z,0.74
2023-02-07T12:42:05.034Z,0.73
2023-02-07T12:44:39.281Z,0.71
2023-02-07T12:47:29.182Z,0.74
2023-02-07T12:50:18.181Z,0.80
2023-02-07T12:52:58.293Z,0.72
2023-02-07T12:55:51.538Z,0.78
2023-02-07T12:58:37.489Z,0.84
2023-02-07T13:01:26.337Z,0.85
2023-02-07T13:04:03.080Z,0.91
2023-02-07T13:06:53.955Z,0.97
2023-02-07T13:09:40.294Z,1.01
2023-02-07T13:12:17.770Z,0.99
2023-02-07T13:15:27.150Z,0.99
2023-02-07T13:18:41.208Z,1.07
2023-02-07T13:21:24.110Z,1.06
2023-02-07T13:23:51.504Z,1.10
2023-02-07T13:26:21.478Z,1.08
2023-02-07T13:29:01.448Z,1.07
2023-02-07T13:31:37.667Z,0.95
2023-02-07T13:34:05.359Z,0.91
2023-02-07T13:36:39.461Z,0.84
2023-02-07T13:39:44.314Z,0.77
2023-02-07T13:42:22.030Z,0.66
2023-02-07T13:45:02.648Z,0.62
2023-02-07T13:47:41.519Z,0.62
2023-02-07T13:50:27.545Z,0.62
2023-02-07T13:53:16.789Z,0.63
2023-02-07T13:55:44.260Z,0.54
2023-02-07T13:58:52.045Z,0.59
2023-02-07T14:01:20.374Z,0.57
2023-02-07T14:04:07.929Z,0.51
2023-02-07T14:07:02.984Z,0.53
2023-02-07T14:09:35.037Z,0.55
2023-02-07T14:12:08.366Z,0.51
2023-02-07T14:14:38.839Z,0.44
2023-02-07T14:17:13.905Z,0.39
2023-02-07T14:19:41.579Z,0.37
2023-02-07T14:22:19.942Z,0.31
2023-02-07T14:25:06.014Z,0.31
2023-02-07T14:27:34.372Z,0.25
2023-02-07T14:30:20.759Z,0.23
2023-02-07T14:33:06.632Z,0.28
2023-02-07T14:35:39.744Z,0.27
2023-02-07T14:38:07.087Z,0.28
2023-02-07T14:40:43.558Z,0.25
2023-02-07T14:43:13.718Z,0.21
2023-02-07T14:45:53.400Z,0.26
2023-02-07T14:48:39.843Z,0.16
2023-02-07T14:51:28.086Z,0.15
2023-02-07T14:54:16.221Z,0.15
2023-02-07T14:56:51.499Z,0.18
2023-02-07T14:59:29.040Z,0.15
2023-02-07T15:01:56.764Z,0.02
2023-02-07T15:04:24.260Z,0.08
2023-02-07T15:06:51.814Z,0.05
2023-02-07T15:09:25.961Z,-0.01
2023-02-07T15:12:03.515Z,-0.01
2023-02-07T15:14:35.123Z,-0.01
2023-02-07T15:17:03.391Z,-0.11
2023-02-07T15:19:32.350Z,-0.09
2023-02-07T15:22:00.518Z,-0.09
2023-02-07T15:24:51.347Z,-0.10
2023-02-07T15:27:23.054Z,-0.15
2023-02-07T15:29:58.820Z,-0.14
2023-02-07T15:32:31.268Z,-0.15
2023-02-07T15:35:07.020Z,-0.17
2023-02-07T15:37:34.551Z,-0.18
2023-02-07T15:40:01.882Z,-0.21
2023-02-07T15:42:29.513Z,-0.19
2023-02-07T15:44:58.224Z,-0.21
2023-02-07T15:47:28.912Z,-0.21
2023-02-07T15:50:05.056Z,-0.21
2023-02-07T15:52:36.355Z,-0.29
2023-02-07T15:55:06.058Z,-0.27
2023-02-07T15:57:35.825Z,-0.33
2023-02-07T16:00:15.373Z,-0.39
2023-02-07T16:02:48.401Z,-0.36
2023-02-07T16:05:39.092Z,-0.38
2023-02-07T16:08:27.745Z,-0.36
2023-02-07T16:10:55.201Z,-0.40
2023-02-07T16:13:22.831Z,-0.37
2023-02-07T16:15:57.953Z,-0.39
2023-02-07T16:18:46.547Z,-0.37
2023-02-07T16:21:25.297Z,-0.38
2023-02-07T16:23:55.621Z,-0.39
2023-02-07T16:26:26.122Z,-0.42
2023-02-07T16:28:54.123Z,-0.42
2023-02-07T16:31:21.617Z,-0.42
2023-02-07T16:33:49.482Z,-0.42
2023-02-07T16:36:18.176Z,-0.46
2023-02-07T16:38:46.400Z,-0.48
2023-02-07T16:41:31.652Z,-0.48
2023-02-07T16:44:03.372Z,-0.46
2023-02-07T16:46:30.927Z,-0.48
2023-02-07T16:48:58.712Z,-0.47
2023-02-07T16:51:25.998Z,-0.52
2023-02-07T16:53:53.775Z,-0.53
2023-02-07T16:56:24.578Z,-0.53
2023-02-07T16:58:52.273Z,-0.58
2023-02-07T17:01:21.466Z,-0.50
2023-02-07T17:03:49.425Z,-0.56
2023-02-07T17:06:19.140Z,-0.55
2023-02-07T17:08:47.700Z,-0.55
2023-02-07T17:11:20.879Z,-0.57
2023-02-07T17:13:48.473Z,-0.56
2023-02-07T17:16:15.823Z,-0.59
2023-02-07T17:18:43.612Z,-0.60
2023-02-07T17:21:13.340Z,-0.63
2023-02-07T17:23:41.578Z,-0.65
2023-02-07T17:26:30.138Z,-0.64
2023-02-07T17:28:58.813Z,-0.64
2023-02-07T17:31:26.652Z,-0.71
2023-02-07T17:33:54.461Z,-0.72
2023-02-07T17:36:21.797Z,-0.72
2023-02-07T17:38:49.390Z,-0.73
2023-02-07T17:41:17.297Z,-0.74
2023-02-07T17:43:45.246Z,-0.76
2023-02-07T17:46:24.165Z,-0.78
2023-02-07T17:48:52.722Z,-0.79
2023-02-07T17:51:22.797Z,-0.79
2023-02-07T17:53:51.287Z,-0.77
2023-02-07T17:56:37.384Z,-0.76
2023-02-07T17:59:06.830Z,-0.76
2023-02-07T18:01:34.291Z,-0.74
2023-02-07T18:04:02.825Z,-0.75
2023-02-07T18:06:30.910Z,-0.79
2023-02-07T18:08:59.354Z,-0.75
2023-02-07T18:11:28.292Z,-0.82
2023-02-07T18:13:57.300Z,-0.81
2023-02-07T18:16:26.731Z,-0.85
2023-02-07T18:18:56.772Z,-0.81
2023-02-07T18:21:24.674Z,-0.80
2023-02-07T18:23:53.670Z,-0.84
2023-02-07T18:26:21.757Z,-0.86
2023-02-07T18:28:49.811Z,-0.82
2023-02-07T18:31:19.971Z,-0.83
2023-02-07T18:33:48.672Z,-0.81
2023-02-07T18:36:17.007Z,-0.75
2023-02-07T18:38:45.934Z,-0.71
2023-02-07T18:41:16.076Z,-0.73
2023-02-07T18:43:44.111Z,-0.75
2023-02-07T18:46:20.383Z,-0.72
2023-02-07T18:48:49.908Z,-0.72
2023-02-07T18:51:19.418Z,-0.74
2023-02-07T18:53:47.706Z,-0.74
2023-02-07T18:56:18.555Z,-0.73
2023-02-07T18:58:47.023Z,-0.73
2023-02-07T19:01:19.257Z,-0.75
2023-02-07T19:03:48.534Z,-0.76
2023-02-07T19:06:15.895Z,-0.81
2023-02-07T19:08:43.655Z,-0.84
2023-02-07T19:11:11.279Z,-0.89
2023-02-07T19:13:38.946Z,-0.87
2023-02-07T19:16:11.866Z,-0.93
2023-02-07T19:18:39.811Z,-0.94
2023-02-07T19:21:15.647Z,-0.94
2023-02-07T19:23:44.023Z,-0.97
2023-02-07T19:26:11.555Z,-0.95
2023-02-07T19:28:39.394Z,-0.92
2023-02-07T19:31:09.148Z,-0.93
2023-02-07T19:33:37.134Z,-0.94
2023-02-07T19:36:10.029Z,-0.96
2023-02-07T19:38:38.311Z,-0.92
2023-02-07T19:41:07.976Z,-0.93
2023-02-07T19:43:36.506Z,-0.96
2023-02-07T19:46:04.190Z,-0.98
2023-02-07T19:48:32.115Z,-1.00
2023-02-07T19:51:00.902Z,-1.00
2023-02-07T19:53:29.449Z,-1.02
2023-02-07T19:56:04.996Z,-1.00
2023-02-07T19:58:33.932Z,-1.01
2023-02-07T20:01:02.314Z,-1.02
2023-02-07T20:03:30.298Z,-1.00
2023-02-07T20:06:02.772Z,-1.03
2023-02-07T20:08:35.016Z,-1.07
2023-02-07T20:11:07.444Z,-1.10
2023-02-07T20:13:35.812Z,-1.10
2023-02-07T20:16:13.416Z,-1.11
2023-02-07T20:18:41.540Z,-1.12
2023-02-07T20:21:14.570Z,-1.09
2023-02-07T20:23:44.328Z,-1.18
2023-02-07T20:26:14.914Z,-1.18
2023-02-07T20:28:43.458Z,-1.16
2023-02-07T20:31:13.227Z,-1.22
2023-02-07T20:33:42.369Z,-1.05
2023-02-07T20:36:12.349Z,-1.05
2023-02-07T20:38:40.513Z,-1.05
2023-02-07T20:41:14.710Z,-1.05
2023-02-07T20:43:43.565Z,-1.05
2023-02-07T20:46:13.668Z,-1.03
2023-02-07T20:48:42.212Z,-1.04
2023-02-07T20:51:10.858Z,-1.06
2023-02-07T20:53:42.808Z,-1.09
2023-02-07T20:56:13.088Z,-1.10
2023-02-07T20:58:40.986Z,-1.08
2023-02-07T21:01:10.821Z,-1.08
2023-02-07T21:07:40.607Z,-1.06
2023-02-07T21:10:08.451Z,-1.20
2023-02-07T21:12:35.858Z,-1.11
2023-02-07T21:15:03.234Z,-1.10
2023-02-07T21:17:30.885Z,-1.13
2023-02-07T21:19:58.209Z,-1.13
2023-02-07T21:22:25.944Z,-1.12
2023-02-07T21:24:53.283Z,-1.13
2023-02-07T21:27:20.873Z,-1.14
2023-02-07T21:29:48.236Z,-1.09
2023-02-07T21:32:16.087Z,-1.08
2023-02-07T21:34:44.418Z,-1.12
2023-02-07T21:37:12.097Z,-1.11
2023-02-07T21:39:39.632Z,-1.07
2023-02-07T21:42:07.571Z,-1.10
2023-02-07T21:44:34.853Z,-1.08
2023-02-07T21:47:02.899Z,-1.06
2023-02-07T21:49:30.456Z,-1.11
2023-02-07T21:51:59.150Z,-1.11
2023-02-07T21:54:26.834Z,-1.10
2023-02-07T21:56:54.494Z,-1.03
2023-02-07T21:59:22.782Z,-1.01
2023-02-07T22:01:50.674Z,-0.95
2023-02-07T22:04:18.645Z,-0.91
2023-02-07T22:06:48.299Z,-0.88
2023-02-07T22:09:17.711Z,-0.81
2023-02-07T22:11:45.449Z,-0.78
2023-02-07T22:14:13.484Z,-0.73
2023-02-07T22:16:41.670Z,-0.73
2023-02-07T22:19:12.679Z,-0.73
2023-02-07T22:21:40.613Z,-0.71
2023-02-07T22:24:08.321Z,-0.72
2023-02-07T22:26:36.230Z,-0.69
2023-02-07T22:29:05.333Z,-0.70
2023-02-07T22:31:35.501Z,-0.74
2023-02-07T22:34:07.930Z,-0.71
2023-02-07T22:36:38.171Z,-0.79
2023-02-07T22:39:07.136Z,-0.78
2023-02-07T22:41:35.173Z,-0.76
2023-02-07T22:44:05.436Z,-0.76
2023-02-07T22:46:33.190Z,-0.73
2023-02-07T22:49:00.513Z,-0.72
2023-02-07T22:51:36.601Z,-0.70
2023-02-07T22:54:06.414Z,-0.69
2023-02-07T22:56:35.599Z,-0.67
2023-02-07T22:59:03.188Z,-0.66
2023-02-07T23:01:34.330Z,-0.63
2023-02-07T23:04:03.381Z,-0.60
2023-02-07T23:06:32.770Z,-0.63
2023-02-07T23:09:00.493Z,-0.68
2023-02-07T23:11:28.312Z,-0.73
2023-02-07T23:13:55.443Z,-0.75
2023-02-07T23:16:24.938Z,-0.69
2023-02-07T23:18:54.102Z,-0.78
2023-02-07T23:21:23.399Z,-0.68
2023-02-07T23:23:50.967Z,-0.66
2023-02-07T23:26:21.038Z,-0.63
2023-02-07T23:28:48.332Z,-0.63
2023-02-07T23:31:16.994Z,-0.64
2023-02-07T23:33:44.470Z,-0.69
2023-02-07T23:36:13.012Z,-0.74
2023-02-07T23:38:40.616Z,-0.79
2023-02-07T23:41:08.627Z,-0.83
2023-02-07T23:43:37.584Z,-0.86
2023-02-07T23:46:06.313Z,-0.89
2023-02-07T23:48:38.015Z,-0.88
2023-02-07T23:51:06.643Z,-0.94
2023-02-07T23:53:34.228Z,-1.00
2023-02-07T23:56:02.297Z,-0.99
2023-02-07T23:58:29.734Z,-0.98
